Time;durP1;ratioP1;P1;durP2;ratioP2;P2;SDS_P1;SDS_P2;PMS_P1;PMS_P2;Temp;Humidity;BMP_temperature;BMP_pressure;BME280_temperature;BME280_humidity;BME280_pressure;Samples;Min_cycle;Max_cycle;Signal;HPM_P1;HPM_P2
2022/12/15 02:46:05;;;;;;;7.90;0.73;;;-0.80;99.90;;;;;;5052352;28;20068;-78
2022/12/15 02:48:59;;;;;;;4.93;0.60;;;-0.90;99.90;;;;;;5052428;28;20056;-78
2022/12/15 02:51:47;;;;;;;13.80;1.08;;;-0.90;99.90;;;;;;5042694;28;20059;-78
2022/12/15 02:54:41;;;;;;;5.90;0.77;;;-0.80;99.90;;;;;;5052283;28;20053;-78
2022/12/15 02:57:44;;;;;;;8.05;0.98;;;-0.70;99.90;;;;;;5034809;28;20049;-78
2022/12/15 03:00:11;;;;;;;6.13;0.77;;;-0.50;99.90;;;;;;5052213;28;20496;-78
2022/12/15 03:02:41;;;;;;;6.40;1.02;;;-0.50;99.90;;;;;;5056009;28;20120;-78
2022/12/15 03:05:08;;;;;;;5.95;0.88;;;-0.40;99.90;;;;;;5055962;28;20051;-78
2022/12/15 03:07:34;;;;;;;9.88;0.70;;;-0.40;99.90;;;;;;5056029;28;20049;-78
2022/12/15 03:10:03;;;;;;;8.75;0.68;;;-0.30;99.90;;;;;;5055751;28;20056;-78
2022/12/15 03:12:28;;;;;;;2.58;0.77;;;-0.20;99.90;;;;;;5056073;28;20417;-78
2022/12/15 03:14:54;;;;;;;5.45;0.93;;;-0.30;99.90;;;;;;5055752;28;20072;-78
2022/12/15 03:17:20;;;;;;;4.45;0.60;;;-0.40;99.90;;;;;;5056004;28;20037;-78
2022/12/15 03:19:45;;;;;;;6.93;0.70;;;-0.40;99.90;;;;;;5055565;28;20052;-78
2022/12/15 03:22:11;;;;;;;11.32;1.10;;;-0.30;99.90;;;;;;5056903;28;20041;-78
2022/12/15 03:24:37;;;;;;;13.93;1.60;;;-0.20;99.90;;;;;;5055598;28;20044;-78
2022/12/15 03:27:03;;;;;;;7.03;1.30;;;-0.20;99.90;;;;;;5055573;28;20041;-78
2022/12/15 03:29:28;;;;;;;9.60;1.23;;;-0.30;99.90;;;;;;5055330;28;20074;-78
2022/12/15 03:31:54;;;;;;;6.32;0.73;;;-0.30;99.90;;;;;;5055409;28;20072;-77
2022/12/15 03:34:20;;;;;;;10.73;1.40;;;-0.30;99.90;;;;;;5055453;28;20103;-78
2022/12/15 03:36:46;;;;;;;11.13;1.80;;;-0.40;99.90;;;;;;5055374;28;20052;-78
2022/12/15 03:39:12;;;;;;;12.10;1.77;;;-0.10;99.90;;;;;;5055176;28;20053;-78
2022/12/15 03:41:37;;;;;;;5.82;0.75;;;-0.30;99.90;;;;;;5055176;28;20041;-77
2022/12/15 03:44:03;;;;;;;9.95;1.17;;;-0.20;99.90;;;;;;5054751;28;20084;-78
2022/12/15 03:46:29;;;;;;;9.00;0.85;;;-0.10;99.90;;;;;;5055171;28;20060;-78
2022/12/15 03:48:54;;;;;;;4.10;1.00;;;-0.20;99.90;;;;;;5055196;28;20041;-78
2022/12/15 03:51:20;;;;;;;6.65;1.00;;;-0.10;99.90;;;;;;5056315;28;20060;-78
2022/12/15 03:53:48;;;;;;;13.82;1.17;;;-0.20;99.90;;;;;;5054857;28;20053;-78
2022/12/15 03:56:14;;;;;;;10.45;1.42;;;-0.40;99.90;;;;;;5055149;28;20053;-78
2022/12/15 03:58:40;;;;;;;15.43;1.25;;;-0.30;99.90;;;;;;5054907;28;20048;-78
2022/12/15 04:01:27;;;;;;;4.15;0.70;;;-0.30;99.90;;;;;;5054944;28;20037;-77
2022/12/15 04:03:54;;;;;;;7.15;0.88;;;-0.50;99.90;;;;;;5054712;28;20041;-77
2022/12/15 04:06:19;;;;;;;10.55;2.08;;;-0.50;99.90;;;;;;5054657;28;20045;-77
2022/12/15 04:08:45;;;;;;;7.50;1.10;;;-0.40;99.90;;;;;;5054669;28;20045;-78
2022/12/15 04:11:11;;;;;;;9.13;1.00;;;-0.50;99.90;;;;;;5054649;28;20045;-78
2022/12/15 04:13:36;;;;;;;9.07;1.30;;;-0.60;99.90;;;;;;5053949;28;20053;-77
2022/12/15 04:16:02;;;;;;;11.02;2.00;;;-0.50;99.90;;;;;;5055927;28;20049;-78
2022/12/15 04:18:28;;;;;;;7.40;1.10;;;-0.50;99.90;;;;;;5054340;28;20120;-78
2022/12/15 04:20:54;;;;;;;12.00;1.52;;;-0.40;99.90;;;;;;5054468;28;20167;-78
2022/12/15 04:23:20;;;;;;;6.82;1.60;;;-0.60;99.90;;;;;;5037774;28;20072;-78
2022/12/15 05:31:51;;;;;;;10.38;1.65;;;-0.50;99.90;;;;;;5054695;28;20407;-78
2022/12/15 05:34:22;;;;;;;12.85;1.67;;;-0.60;99.90;;;;;;5053291;28;20434;-78
2022/12/15 05:36:49;;;;;;;8.35;1.90;;;-0.70;99.90;;;;;;5053372;28;20037;-78
2022/12/15 05:39:14;;;;;;;9.57;2.05;;;-0.70;99.90;;;;;;5053390;28;20114;-78
2022/12/15 05:41:40;;;;;;;12.05;1.55;;;-0.70;99.90;;;;;;5052669;28;20427;-78
2022/12/15 05:44:06;;;;;;;13.10;1.65;;;-0.70;99.90;;;;;;5052834;28;20059;-78
2022/12/15 05:46:32;;;;;;;11.02;1.70;;;-0.70;99.90;;;;;;5053022;28;20131;-78
2022/12/15 05:48:58;;;;;;;14.10;2.00;;;-0.70;99.90;;;;;;5052889;28;20461;-78
2022/12/15 05:51:23;;;;;;;12.05;2.10;;;-0.70;99.90;;;;;;5052762;28;20448;-78
2022/12/15 05:53:49;;;;;;;12.45;2.42;;;-0.80;99.90;;;;;;5052708;28;20226;-78
2022/12/15 05:56:15;;;;;;;8.20;2.10;;;-0.70;99.90;;;;;;5053999;28;20092;-78
2022/12/15 05:58:41;;;;;;;7.45;2.90;;;-0.70;99.90;;;;;;5052585;28;20119;-78
2022/12/15 06:01:15;;;;;;;11.32;2.15;;;-0.70;99.90;;;;;;5052472;28;20127;-78
2022/12/15 06:03:41;;;;;;;9.85;2.33;;;-0.70;99.90;;;;;;5052660;28;20068;-78
2022/12/15 06:06:09;;;;;;;16.13;2.55;;;-0.80;99.90;;;;;;5052694;28;20143;-78
2022/12/15 06:08:36;;;;;;;9.13;2.20;;;-0.90;99.90;;;;;;5053886;28;20051;-78
2022/12/15 06:11:02;;;;;;;8.05;2.45;;;-0.60;99.90;;;;;;5052783;28;20041;-78
2022/12/15 06:13:35;;;;;;;12.35;2.90;;;-0.70;99.90;;;;;;5052390;28;20048;-78
2022/12/15 06:16:02;;;;;;;;;;;-0.80;99.90;;;;;;5052858;28;20041;-78
2022/12/15 06:18:31;;;;;;;11.32;2.63;;;-0.60;99.90;;;;;;5052680;28;19921;-78
2022/12/15 06:21:02;;;;;;;10.88;2.22;;;-0.60;99.90;;;;;;5052705;28;20102;-78
2022/12/15 06:23:29;;;;;;;9.85;2.42;;;-0.70;99.90;;;;;;5052644;28;20049;-78
2022/12/15 06:25:55;;;;;;;13.80;2.03;;;-0.50;99.90;;;;;;5052373;28;20053;-78
2022/12/15 06:28:24;;;;;;;17.40;3.08;;;-0.60;99.90;;;;;;5053516;28;20045;-78
2022/12/15 06:31:02;;;;;;;18.38;2.30;;;-0.40;99.90;;;;;;5052234;28;20045;-78
2022/12/15 06:33:29;;;;;;;14.88;2.85;;;-0.40;99.90;;;;;;5053464;28;20048;-78
2022/12/15 06:35:54;;;;;;;35.40;6.78;;;-0.50;99.90;;;;;;5052819;28;20045;-78
2022/12/15 06:38:20;;;;;;;11.23;2.60;;;-0.40;99.90;;;;;;5058673;28;20383;-78
2022/12/15 06:40:56;;;;;;;13.73;2.13;;;-0.40;99.90;;;;;;5058977;28;20041;-78
2022/12/15 06:43:22;;;;;;;10.98;2.78;;;-0.40;99.90;;;;;;5058816;28;20041;-78
2022/12/15 06:45:49;;;;;;;10.98;2.78;;;-0.60;99.90;;;;;;5058684;28;20059;-78
2022/12/15 06:48:18;;;;;;;9.40;2.67;;;-0.60;99.90;;;;;;5058845;28;20041;-77
2022/12/15 06:50:44;;;;;;;18.92;2.90;;;-0.50;99.90;;;;;;5058604;28;20041;-78
2022/12/15 06:53:16;;;;;;;11.75;2.47;;;-0.60;99.90;;;;;;5058544;28;20056;-77
2022/12/15 06:55:42;;;;;;;18.75;3.10;;;-0.60;99.90;;;;;;5058649;28;20127;-78
2022/12/15 06:58:08;;;;;;;14.90;3.90;;;-0.70;99.90;;;;;;5058704;28;20045;-78
2022/12/15 07:00:37;;;;;;;21.00;3.83;;;-0.60;99.90;;;;;;5059072;28;20045;-78
2022/12/15 07:03:05;;;;;;;11.75;2.92;;;-0.80;99.90;;;;;;5058745;28;20044;-78
2022/12/15 07:05:31;;;;;;;12.15;2.88;;;-0.60;99.90;;;;;;5058549;28;20048;-78
2022/12/15 07:07:56;;;;;;;11.68;2.70;;;-0.60;99.90;;;;;;5058720;28;20045;-78
2022/12/15 07:10:22;;;;;;;13.98;2.65;;;-0.60;99.90;;;;;;5058608;28;20098;-78
2022/12/15 07:12:48;;;;;;;18.85;3.25;;;-0.60;99.90;;;;;;5058609;28;20136;-78
2022/12/15 07:15:13;;;;;;;20.67;3.00;;;-0.60;99.90;;;;;;5058386;28;20073;-78
2022/12/15 07:17:39;;;;;;;15.80;2.60;;;-0.60;99.90;;;;;;5058606;28;20056;-78
2022/12/15 07:20:05;;;;;;;17.38;3.50;;;-0.50;99.90;;;;;;5058430;28;20041;-78
2022/12/15 07:22:31;;;;;;;18.88;2.53;;;-0.40;99.90;;;;;;5058248;28;20049;-78
2022/12/15 07:24:57;;;;;;;21.90;3.35;;;-0.30;99.90;;;;;;5058753;28;20140;-78
2022/12/15 07:27:22;;;;;;;13.38;2.83;;;-0.40;99.90;;;;;;5058761;28;20481;-78
2022/12/15 07:29:48;;;;;;;22.50;3.83;;;-0.40;99.90;;;;;;5058445;28;20492;-78
2022/12/15 07:32:14;;;;;;;13.45;3.53;;;-0.50;99.90;;;;;;5058599;28;20112;-78
2022/12/15 07:34:40;;;;;;;15.23;3.15;;;-0.50;99.90;;;;;;5058139;28;20052;-77
2022/12/15 07:37:07;;;;;;;14.52;2.78;;;-0.50;99.90;;;;;;5058396;28;20045;-77
2022/12/15 07:39:32;;;;;;;14.40;2.85;;;-0.50;99.90;;;;;;5058016;28;20113;-77
2022/12/15 07:41:58;;;;;;;10.07;2.97;;;-0.50;99.90;;;;;;5057259;28;20139;-77
2022/12/15 07:44:24;;;;;;;17.02;3.67;;;-0.40;99.90;;;;;;5058015;28;20060;-77
2022/12/15 07:46:50;;;;;;;14.25;2.92;;;-0.50;99.90;;;;;;5058281;28;20480;-77
2022/12/15 07:49:16;;;;;;;12.50;2.72;;;-0.50;99.90;;;;;;5055902;28;20045;-77
2022/12/15 07:51:42;;;;;;;14.35;3.17;;;-0.40;99.90;;;;;;5056099;28;20110;-77
2022/12/15 07:54:10;;;;;;;14.40;4.50;;;-0.40;99.90;;;;;;5054804;28;20076;-77
2022/12/15 07:56:37;;;;;;;26.40;3.53;;;-0.50;99.90;;;;;;5054741;28;20045;-78
2022/12/15 07:59:03;;;;;;;9.07;3.00;;;-0.40;99.90;;;;;;5056147;28;20080;-78
2022/12/15 08:01:31;;;;;;;15.48;3.50;;;-0.40;99.90;;;;;;5056198;28;20087;-78
2022/12/15 08:03:57;;;;;;;9.60;2.60;;;-0.40;99.90;;;;;;5054659;28;20370;-78
2022/12/15 08:06:23;;;;;;;10.95;2.67;;;-0.50;99.90;;;;;;5054543;28;20053;-79
2022/12/15 08:08:50;;;;;;;9.38;2.10;;;-0.50;99.90;;;;;;5054675;28;20127;-79
2022/12/15 08:11:16;;;;;;;22.58;3.00;;;-0.40;99.90;;;;;;5055740;28;20037;-79
2022/12/15 08:13:43;;;;;;;14.65;3.25;;;-0.50;99.90;;;;;;5054348;28;20045;-78
2022/12/15 08:16:10;;;;;;;17.85;3.63;;;-0.40;99.90;;;;;;5055711;28;20076;-79
2022/12/15 08:18:36;;;;;;;24.33;3.33;;;-0.30;99.90;;;;;;5054568;28;20049;-79
2022/12/15 08:21:03;;;;;;;14.02;4.30;;;-0.30;99.90;;;;;;5047313;28;20435;-80
2022/12/15 08:23:30;;;;;;;14.82;2.90;;;-0.20;99.90;;;;;;5039320;28;20477;-78
2022/12/15 08:26:08;;;;;;;18.05;2.78;;;-0.10;99.90;;;;;;5034314;28;20045;-79
2022/12/15 08:28:35;;;;;;;14.68;3.38;;;-0.10;99.90;;;;;;5034072;28;20076;-78
2022/12/15 08:31:04;;;;;;;18.65;3.78;;;-0.10;99.90;;;;;;5034237;28;20048;-78
2022/12/15 08:33:30;;;;;;;15.57;3.25;;;-0.10;99.90;;;;;;5034049;28;20092;-78
2022/12/15 08:36:02;;;;;;;16.15;3.10;;;0.10;99.90;;;;;;5034143;28;20073;-78
2022/12/15 08:38:29;;;;;;;11.32;3.78;;;0.10;99.90;;;;;;5034264;28;20045;-78
2022/12/15 08:40:55;;;;;;;14.98;3.10;;;0.20;99.90;;;;;;5033741;28;20425;-78
2022/12/15 08:43:21;;;;;;;11.15;3.17;;;0.30;99.90;;;;;;5034274;28;20145;-78
2022/12/15 08:45:46;;;;;;;15.63;3.90;;;0.30;99.90;;;;;;5033570;28;20565;-78
2022/12/15 08:48:12;;;;;;;13.35;3.22;;;0.30;99.90;;;;;;5033920;28;20404;-78
2022/12/15 08:50:43;;;;;;;13.63;3.13;;;0.40;99.90;;;;;;5033630;28;20053;-78
2022/12/15 08:53:09;;;;;;;17.48;3.85;;;0.50;99.90;;;;;;5034900;28;20048;-78
2022/12/15 08:55:35;;;;;;;17.00;3.53;;;0.50;99.90;;;;;;5033767;28;20041;-79
2022/12/15 08:58:01;;;;;;;23.50;3.70;;;0.50;99.90;;;;;;5033471;28;20050;-80
2022/12/15 09:00:26;;;;;;;19.52;3.50;;;0.30;99.90;;;;;;5033621;28;20156;-80
2022/12/15 09:02:52;;;;;;;20.67;3.90;;;0.50;99.90;;;;;;5033670;28;20507;-80
2022/12/15 09:05:18;;;;;;;18.20;3.80;;;0.60;99.90;;;;;;5033383;28;20469;-80
2022/12/15 09:07:43;;;;;;;15.18;4.00;;;0.60;99.90;;;;;;5033301;28;20089;-80
2022/12/15 09:10:09;;;;;;;13.15;3.92;;;0.60;99.90;;;;;;5033561;28;20128;-79
2022/12/15 09:12:34;;;;;;;19.42;4.00;;;0.70;99.90;;;;;;5044658;28;20067;-80
2022/12/15 09:15:00;;;;;;;16.58;3.65;;;0.80;99.90;;;;;;5053000;28;20114;-80
2022/12/15 09:17:26;;;;;;;19.02;3.20;;;0.90;99.90;;;;;;5053078;28;20037;-80
2022/12/15 09:19:51;;;;;;;23.92;4.40;;;1.00;99.90;;;;;;5053023;28;20102;-80
2022/12/15 09:22:17;;;;;;;23.30;4.70;;;1.00;99.90;;;;;;5052988;28;20095;-79
2022/12/15 09:24:43;;;;;;;20.30;5.28;;;1.00;99.90;;;;;;5052788;28;20090;-80
2022/12/15 09:27:09;;;;;;;18.10;4.30;;;1.20;99.90;;;;;;5054414;28;20048;-78
2022/12/15 09:29:35;;;;;;;20.40;3.63;;;1.30;99.90;;;;;;5054349;28;20068;-79
2022/12/15 09:32:01;;;;;;;22.40;5.30;;;1.30;99.90;;;;;;5052983;28;20057;-80
2022/12/15 09:34:27;;;;;;;26.73;4.95;;;1.30;99.90;;;;;;5052644;28;20095;-79
2022/12/15 09:36:52;;;;;;;16.23;4.35;;;1.40;99.90;;;;;;5052990;28;20133;-80
2022/12/15 09:39:18;;;;;;;15.82;5.10;;;1.40;99.90;;;;;;5052555;28;20645;-80
2022/12/15 09:41:52;;;;;;;20.38;4.35;;;1.40;99.90;;;;;;5052940;28;20052;-79
2022/12/15 09:44:20;;;;;;;18.65;5.20;;;1.40;99.90;;;;;;5052365;28;20052;-80
2022/12/15 09:47:07;;;;;;;12.45;4.22;;;1.50;99.90;;;;;;5052790;28;20148;-79
2022/12/15 09:49:55;;;;;;;22.95;4.20;;;1.60;99.90;;;;;;5052544;28;20058;-80
2022/12/15 09:52:27;;;;;;;17.42;4.32;;;1.60;99.90;;;;;;5035921;28;20045;-80
2022/12/15 09:54:54;;;;;;;18.10;4.57;;;1.60;99.90;;;;;;5033730;28;20060;-80
2022/12/15 09:57:38;;;;;;;20.92;5.10;;;1.80;99.90;;;;;;5032751;28;20064;-80
2022/12/15 10:00:20;;;;;;;20.08;7.15;;;1.80;99.90;;;;;;5032671;28;20140;-80
2022/12/15 10:03:23;;;;;;;19.52;5.47;;;1.90;99.90;;;;;;5033828;28;20171;-78
2022/12/15 10:06:00;;;;;;;21.45;5.15;;;2.00;99.90;;;;;;5033497;28;20046;-80
2022/12/15 10:08:33;;;;;;;26.60;5.47;;;2.10;99.90;;;;;;5031743;28;20045;-80
2022/12/15 10:11:10;;;;;;;26.45;5.20;;;2.10;99.90;;;;;;5033000;28;20057;-80
2022/12/15 10:13:53;;;;;;;25.48;5.25;;;2.20;99.90;;;;;;5031433;28;20493;-78
2022/12/15 10:16:31;;;;;;;22.80;6.15;;;2.20;99.90;;;;;;5030472;28;20076;-79
2022/12/15 10:19:04;;;;;;;14.48;5.65;;;2.20;99.90;;;;;;5032150;28;20489;-79
2022/12/15 10:21:31;;;;;;;;;;;2.30;99.90;;;;;;5032580;28;20079;-79
2022/12/15 10:24:08;;;;;;;20.30;5.68;;;2.30;99.90;;;;;;5032349;28;20349;-82
2022/12/15 10:26:34;;;;;;;21.65;4.95;;;2.30;99.90;;;;;;5032360;28;20045;-80
2022/12/15 10:29:17;;;;;;;15.82;5.70;;;2.30;99.90;;;;;;5032034;28;20037;-79
2022/12/15 10:31:59;;;;;;;23.77;6.22;;;2.40;99.90;;;;;;5032288;28;20077;-80
2022/12/15 10:34:32;;;;;;;24.15;7.60;;;2.50;99.90;;;;;;5031953;28;20132;-80
2022/12/15 10:36:58;;;;;;;;;;;2.50;99.90;;;;;;5031980;28;20088;-80
2022/12/15 10:39:37;;;;;;;18.73;5.22;;;2.60;99.90;;;;;;5031874;28;19971;-80
2022/12/15 10:42:13;;;;;;;22.83;5.43;;;2.70;99.90;;;;;;5032121;28;20103;-79
2022/12/15 10:44:42;;;;;;;19.75;5.85;;;2.70;99.90;;;;;;5031786;28;20049;-80
2022/12/15 10:47:10;;;;;;;22.80;5.97;;;2.90;99.90;;;;;;5033387;28;20073;-80
2022/12/15 10:49:36;;;;;;;15.55;4.65;;;3.00;99.90;;;;;;5031829;28;20128;-81
2022/12/15 10:52:02;;;;;;;25.08;8.05;;;3.00;99.90;;;;;;5032817;28;20136;-81
2022/12/15 10:54:42;;;;;;;17.73;5.70;;;3.10;99.90;;;;;;5032014;28;20041;-82
2022/12/15 10:57:26;;;;;;;27.35;5.60;;;3.20;99.90;;;;;;5031809;28;20073;-83
2022/12/15 10:59:54;;;;;;;34.58;10.00;;;3.20;99.90;;;;;;5033346;28;20124;-82
2022/12/15 11:02:19;;;;;;;36.75;9.32;;;3.20;99.90;;;;;;5031625;28;20401;-83
2022/12/15 11:05:14;;;;;;;29.88;9.85;;;3.30;99.90;;;;;;5032855;28;20045;-81
2022/12/15 11:07:55;;;;;;;39.40;12.40;;;3.30;99.90;;;;;;5031647;28;20053;-83
2022/12/15 11:13:19;;;;;;;44.85;14.13;;;3.40;99.90;;;;;;5031423;28;20060;-83
2022/12/15 11:15:52;;;;;;;40.70;15.48;;;3.50;99.90;;;;;;5031826;28;20124;-81
2022/12/15 11:18:22;;;;;;;;;;;3.40;99.90;;;;;;5031937;28;20046;-82
2022/12/15 11:21:12;;;;;;;18.65;6.85;;;3.50;99.90;;;;;;5032114;28;19928;-82
2022/12/15 11:23:50;;;;;;;14.98;6.10;;;3.50;99.90;;;;;;5025301;28;20053;-83
2022/12/15 11:26:29;;;;;;;21.42;5.60;;;3.50;99.90;;;;;;5035576;28;20053;-80
2022/12/15 11:29:01;;;;;;;19.35;5.85;;;3.60;99.90;;;;;;5035505;28;20072;-82
2022/12/15 11:31:35;;;;;;;19.38;5.57;;;3.60;99.90;;;;;;5037793;28;20523;-82
2022/12/15 11:34:01;;;;;;;19.83;5.32;;;3.70;99.90;;;;;;5046761;28;20507;-82
2022/12/15 11:36:57;;;;;;;24.08;7.28;;;3.70;99.90;;;;;;5053519;28;20037;-83
2022/12/15 11:39:44;;;;;;;23.88;6.63;;;3.80;99.90;;;;;;5035092;28;20041;-83
2022/12/15 11:42:16;;;;;;;18.55;4.75;;;3.80;99.90;;;;;;5036451;28;20060;-83
2022/12/15 11:45:12;;;;;;;19.63;5.72;;;3.90;99.90;;;;;;5034913;28;20060;-83
2022/12/15 11:47:58;;;;;;;25.98;6.43;;;3.90;99.90;;;;;;5035122;28;20057;-83
2022/12/15 11:50:50;;;;;;;17.52;6.53;;;4.00;99.90;;;;;;5034650;28;20141;-83
2022/12/15 11:53:40;;;;;;;17.48;6.18;;;4.10;99.90;;;;;;5034929;28;20493;-84
2022/12/15 11:56:22;;;;;;;28.90;6.22;;;4.10;99.90;;;;;;5034799;28;20124;-80
2022/12/15 11:58:57;;;;;;;21.30;5.40;;;4.10;99.90;;;;;;5034554;28;20077;-78
2022/12/15 12:01:37;;;;;;;18.35;4.60;;;4.10;99.90;;;;;;5034571;28;20045;-77
2022/12/15 12:04:25;;;;;;;17.83;5.05;;;4.00;99.90;;;;;;5034818;28;20408;-77
2022/12/15 12:07:21;;;;;;;16.92;5.20;;;3.90;99.90;;;;;;5034554;28;20057;-77
2022/12/15 12:10:11;;;;;;;20.20;5.47;;;3.80;99.90;;;;;;5034441;28;20558;-78
2022/12/15 12:12:54;;;;;;;11.35;3.72;;;3.70;99.90;;;;;;5034298;28;20046;-77
2022/12/15 12:15:31;;;;;;;16.70;5.53;;;3.70;99.90;;;;;;5034572;28;20045;-77
2022/12/15 12:18:45;;;;;;;18.10;4.70;;;3.60;99.90;;;;;;5034427;28;20046;-76
2022/12/15 12:21:18;;;;;;;26.98;4.60;;;3.60;99.90;;;;;;5031837;28;20069;-76
2022/12/15 12:24:10;;;;;;;17.98;3.78;;;3.60;99.90;;;;;;5034092;28;20485;-78
2022/12/15 12:26:52;;;;;;;15.90;3.72;;;3.60;99.90;;;;;;5034491;28;20500;-77
2022/12/15 12:29:27;;;;;;;19.85;4.97;;;3.60;99.90;;;;;;5034343;28;20046;-77
2022/12/15 12:31:56;;;;;;;13.38;3.65;;;3.60;99.90;;;;;;5034303;28;20121;-81
2022/12/15 12:34:31;;;;;;;20.77;3.78;;;3.60;99.90;;;;;;5033410;28;20054;-81
2022/12/15 12:37:08;;;;;;;17.25;3.78;;;3.60;99.90;;;;;;5035454;28;20042;-77
2022/12/15 12:39:34;;;;;;;14.75;4.45;;;3.60;99.90;;;;;;5034351;28;20072;-79
2022/12/15 12:42:11;;;;;;;14.75;4.10;;;3.60;99.90;;;;;;5033935;28;20041;-77
2022/12/15 12:44:37;;;;;;;11.93;3.42;;;3.70;99.90;;;;;;5034843;28;20057;-78
2022/12/15 12:47:20;;;;;;;17.60;3.38;;;3.60;99.90;;;;;;5034112;28;20124;-78
2022/12/15 12:49:53;;;;;;;15.95;3.75;;;3.70;99.90;;;;;;5035228;28;20051;-77
2022/12/15 12:52:24;;;;;;;13.85;3.33;;;3.60;99.90;;;;;;5033857;28;20397;-79
2022/12/15 12:54:57;;;;;;;11.43;2.85;;;3.70;99.90;;;;;;5034848;28;20045;-77
2022/12/15 12:57:33;;;;;;;19.02;3.15;;;3.80;99.90;;;;;;5035023;28;20053;-77
2022/12/15 13:00:13;;;;;;;10.20;3.05;;;3.90;99.90;;;;;;5033544;28;20053;-77
2022/12/15 13:02:52;;;;;;;15.82;3.35;;;3.90;99.90;;;;;;5033488;28;20049;-76
2022/12/15 13:05:30;;;;;;;13.88;3.38;;;3.90;99.90;;;;;;5033706;28;20081;-78
2022/12/15 13:08:05;;;;;;;11.13;3.97;;;3.80;99.90;;;;;;5033499;28;20046;-78
2022/12/15 13:10:36;;;;;;;18.23;3.92;;;3.90;99.90;;;;;;5034807;28;20045;-79
2022/12/15 13:13:17;;;;;;;16.35;3.90;;;3.90;99.90;;;;;;5033402;28;20041;-79
2022/12/15 13:15:48;;;;;;;24.00;4.80;;;3.70;99.90;;;;;;5033294;28;20056;-82
2022/12/15 13:18:23;;;;;;;16.83;3.78;;;3.70;99.90;;;;;;5033457;28;20484;-82
2022/12/15 13:20:53;;;;;;;13.48;4.15;;;3.70;99.90;;;;;;5033316;28;20052;-83
2022/12/15 13:23:18;;;;;;;17.50;4.03;;;3.60;99.90;;;;;;5034771;28;20067;-83
2022/12/15 13:25:45;;;;;;;17.05;5.05;;;3.60;99.90;;;;;;5034382;28;20489;-82
2022/12/15 13:28:22;;;;;;;22.80;5.10;;;3.50;99.90;;;;;;5034154;28;20132;-83
2022/12/15 13:31:20;;;;;;;23.60;5.05;;;3.50;99.90;;;;;;5033192;28;20179;-83
2022/12/15 13:33:49;;;;;;;20.30;5.00;;;3.40;99.90;;;;;;5034128;28;20543;-82
2022/12/15 13:36:36;;;;;;;13.00;4.18;;;3.40;99.90;;;;;;5034271;28;20052;-82
2022/12/15 13:39:14;;;;;;;11.77;4.35;;;3.30;99.90;;;;;;5046233;28;20053;-83
2022/12/15 13:41:39;;;;;;;31.13;6.47;;;3.30;99.90;;;;;;5053663;28;20080;-82
2022/12/15 13:44:31;;;;;;;18.88;4.43;;;3.20;99.90;;;;;;5052900;28;20080;-81
2022/12/15 13:47:09;;;;;;;20.35;3.97;;;3.20;99.90;;;;;;5045345;28;20045;-84
2022/12/15 13:49:42;;;;;;;14.85;5.60;;;3.10;99.90;;;;;;5052796;28;20044;-86
2022/12/15 13:52:16;;;;;;;15.07;4.85;;;3.10;99.90;;;;;;5053799;28;20115;-82
2022/12/15 13:54:52;;;;;;;16.27;6.50;;;3.10;99.90;;;;;;5053508;28;20106;-80
2022/12/15 13:57:19;;;;;;;18.02;6.43;;;3.10;99.90;;;;;;5052174;28;20048;-80
2022/12/15 13:59:52;;;;;;;16.83;5.95;;;3.00;99.90;;;;;;5053661;28;20126;-86
2022/12/15 14:02:27;;;;;;;;;;;3.00;99.90;;;;;;5052741;28;20056;-84
2022/12/15 14:05:24;;;;;;;22.15;8.10;;;3.10;99.90;;;;;;5053782;28;19965;-80
2022/12/15 14:07:53;;;;;;;21.67;7.25;;;3.10;99.90;;;;;;5048900;28;20522;-79
2022/12/15 14:10:24;;;;;;;24.02;7.93;;;3.10;99.90;;;;;;5053581;28;20052;-79
2022/12/15 14:12:53;;;;;;;23.05;7.90;;;3.00;99.90;;;;;;5051830;28;20041;-82
2022/12/15 14:15:25;;;;;;;29.70;8.18;;;3.00;99.90;;;;;;5053439;28;20239;-80
2022/12/15 14:17:54;;;;;;;24.13;8.27;;;3.00;99.90;;;;;;5053609;28;20049;-78
2022/12/15 14:20:24;;;;;;;22.80;7.53;;;2.90;99.90;;;;;;5053192;28;20051;-80
2022/12/15 14:22:51;;;;;;;16.70;7.80;;;2.90;99.90;;;;;;5053169;28;20036;-77
2022/12/15 14:25:19;;;;;;;17.38;6.57;;;2.90;99.90;;;;;;5053467;28;20045;-78
2022/12/15 14:27:45;;;;;;;23.55;7.45;;;2.80;99.90;;;;;;5052730;28;20037;-77
2022/12/15 14:30:31;;;;;;;16.52;5.63;;;2.70;99.90;;;;;;5052602;28;20033;-77
2022/12/15 14:33:13;;;;;;;21.77;5.70;;;2.70;99.90;;;;;;5052917;28;20427;-81
2022/12/15 14:35:43;;;;;;;16.23;4.80;;;2.60;99.90;;;;;;5052133;28;20033;-77
2022/12/15 14:38:15;;;;;;;10.18;3.20;;;2.70;99.90;;;;;;5052024;28;20037;-76
2022/12/15 14:40:42;;;;;;;8.35;2.45;;;2.70;99.90;;;;;;5052078;28;20068;-78
2022/12/15 14:43:16;;;;;;;6.18;1.60;;;2.70;99.90;;;;;;5052005;28;20051;-76
2022/12/15 14:45:42;;;;;;;12.65;3.00;;;2.70;99.90;;;;;;5051163;28;20412;-82
2022/12/15 14:48:09;;;;;;;19.23;5.53;;;2.70;99.90;;;;;;5051812;28;20051;-76
2022/12/15 14:50:35;;;;;;;14.60;4.47;;;2.60;99.90;;;;;;5053262;28;20033;-78
2022/12/15 14:53:05;;;;;;;15.02;3.95;;;2.60;99.90;;;;;;5051670;28;20132;-79
2022/12/15 14:55:38;;;;;;;15.27;6.22;;;2.50;99.90;;;;;;5051719;28;20124;-76
2022/12/15 14:58:22;;;;;;;;;;;2.50;99.90;;;;;;5054028;28;20057;-75
2022/12/15 15:00:49;;;;;;;;;;;2.60;99.90;;;;;;5057336;28;19928;-77
2022/12/15 15:03:20;;;;;;;9.05;2.88;;;2.40;99.90;;;;;;5055638;28;19921;-75
2022/12/15 15:06:00;;;;;;;9.73;3.80;;;2.30;99.90;;;;;;5055865;28;20033;-76
2022/12/15 15:08:31;;;;;;;12.05;3.47;;;2.30;99.90;;;;;;5055487;28;20048;-76
2022/12/15 15:11:22;;;;;;;9.77;3.55;;;2.20;99.90;;;;;;5056740;28;20048;-76
2022/12/15 15:13:52;;;;;;;8.45;3.03;;;2.10;99.90;;;;;;5056361;28;20053;-80
2022/12/15 15:16:18;;;;;;;8.52;3.08;;;2.20;99.90;;;;;;5056186;28;20041;-80
2022/12/15 15:18:53;;;;;;;10.82;4.82;;;2.20;99.90;;;;;;5056273;28;20037;-75
2022/12/15 15:21:25;;;;;;;9.73;3.15;;;2.10;99.90;;;;;;5056711;28;20072;-77
2022/12/15 15:24:17;;;;;;;8.75;3.30;;;2.00;99.90;;;;;;5056701;28;20044;-77
2022/12/15 15:26:43;;;;;;;15.05;6.47;;;2.00;99.90;;;;;;5055242;28;20476;-76
2022/12/15 15:29:39;;;;;;;14.63;7.07;;;2.00;99.90;;;;;;5055218;28;20049;-76
2022/12/15 15:32:19;;;;;;;11.98;3.17;;;1.90;99.90;;;;;;5055256;28;20060;-76
2022/12/15 15:34:46;;;;;;;6.47;2.67;;;1.80;99.90;;;;;;5054892;28;20480;-77
2022/12/15 15:37:20;;;;;;;10.35;2.47;;;1.70;99.90;;;;;;5054953;28;20049;-77
2022/12/15 15:39:53;;;;;;;9.05;3.33;;;1.90;99.90;;;;;;5054582;28;20084;-76
2022/12/15 15:42:19;;;;;;;7.82;2.35;;;1.80;99.90;;;;;;5055088;28;20392;-77
2022/12/15 15:44:49;;;;;;;6.05;2.42;;;1.70;99.90;;;;;;5054857;28;20053;-77
2022/12/15 15:47:24;;;;;;;11.63;3.85;;;1.60;99.90;;;;;;5052930;28;20392;-77
2022/12/15 15:49:52;;;;;;;8.77;3.33;;;1.70;99.90;;;;;;5055673;28;20523;-77
2022/12/15 15:52:17;;;;;;;8.38;3.00;;;1.70;99.90;;;;;;5054817;28;20044;-80
2022/12/15 15:54:44;;;;;;;9.98;3.03;;;1.70;99.90;;;;;;5056193;28;20531;-84
2022/12/15 15:57:15;;;;;;;7.45;2.13;;;1.70;99.90;;;;;;5056044;28;20041;-82
2022/12/15 15:59:42;;;;;;;7.50;2.75;;;1.60;99.90;;;;;;5056021;28;20519;-80
2022/12/15 16:02:10;;;;;;;11.05;2.33;;;1.70;99.90;;;;;;5054948;28;20037;-82
2022/12/15 16:04:39;;;;;;;7.60;2.55;;;1.60;99.90;;;;;;5053789;28;20133;-82
2022/12/15 16:07:06;;;;;;;8.82;2.67;;;1.50;99.90;;;;;;5054622;28;20053;-79
2022/12/15 16:09:32;;;;;;;6.72;2.05;;;1.60;99.90;;;;;;5055095;28;20103;-78
2022/12/15 16:11:58;;;;;;;6.55;3.00;;;1.60;99.90;;;;;;5055706;28;20128;-81
2022/12/15 16:14:24;;;;;;;8.93;2.78;;;1.50;99.90;;;;;;5055493;28;20120;-79
2022/12/15 16:16:52;;;;;;;13.55;2.72;;;1.50;99.90;;;;;;5052633;28;20029;-79
2022/12/15 16:19:18;;;;;;;8.48;2.65;;;1.50;99.90;;;;;;5054246;28;20485;-81
2022/12/15 16:21:43;;;;;;;7.13;2.53;;;1.50;99.90;;;;;;5054150;28;20056;-80
2022/12/15 16:24:16;;;;;;;11.60;2.88;;;1.50;99.90;;;;;;5054265;28;20051;-81
2022/12/15 16:26:49;;;;;;;11.50;2.65;;;1.50;99.90;;;;;;5053799;28;20052;-80
2022/12/15 16:29:17;;;;;;;15.07;3.33;;;1.60;99.90;;;;;;5054990;28;20128;-79
2022/12/15 16:31:46;;;;;;;8.80;3.38;;;1.50;99.90;;;;;;5054086;28;20424;-80
2022/12/15 16:34:13;;;;;;;19.15;4.05;;;1.50;99.90;;;;;;5053995;28;20107;-79
2022/12/15 16:36:39;;;;;;;12.73;3.97;;;1.60;99.90;;;;;;5054293;28;20048;-80
2022/12/15 16:39:45;;;;;;;13.40;4.28;;;1.50;99.90;;;;;;5054206;28;20127;-80
2022/12/15 16:42:11;;;;;;;9.70;3.85;;;1.50;99.90;;;;;;5050485;28;20049;-80
2022/12/15 16:44:36;;;;;;;12.15;4.47;;;1.70;99.90;;;;;;5053818;28;20060;-80
2022/12/15 16:47:02;;;;;;;16.27;5.18;;;1.60;99.90;;;;;;5055288;28;20122;-80
2022/12/15 16:49:29;;;;;;;15.40;5.88;;;1.50;99.90;;;;;;5054896;28;20049;-80
2022/12/15 16:51:54;;;;;;;14.80;5.43;;;1.60;99.90;;;;;;5053501;28;20087;-80
2022/12/15 16:54:25;;;;;;;11.75;5.47;;;1.60;99.90;;;;;;5054983;28;20071;-80
2022/12/15 16:56:52;;;;;;;20.00;6.45;;;1.50;99.90;;;;;;5054961;28;20083;-79
2022/12/15 16:59:21;;;;;;;15.65;5.13;;;1.70;99.90;;;;;;5055804;28;20043;-79
2022/12/15 17:01:47;;;;;;;15.07;5.18;;;1.60;99.90;;;;;;5055185;28;20101;-81
2022/12/15 17:04:15;;;;;;;14.60;5.43;;;1.60;99.90;;;;;;5055085;28;20110;-81